createdAt,value
2018-04-12T00:00:49.683Z,4.67
2018-04-12T00:03:18.582Z,4.80
2018-04-12T00:05:47.583Z,4.90
2018-04-12T00:08:16.894Z,5.17
2018-04-12T00:10:45.841Z,4.53
2018-04-12T00:13:14.819Z,4.00
2018-04-12T00:15:44.223Z,4.73
2018-04-12T00:18:13.224Z,5.50
2018-04-12T00:20:42.243Z,4.20
2018-04-12T00:23:11.662Z,4.87
2018-04-12T00:25:40.712Z,5.40
2018-04-12T00:28:12.944Z,4.93
2018-04-12T00:30:42.549Z,5.20
2018-04-12T00:33:11.694Z,5.53
2018-04-12T00:35:41.903Z,5.60
2018-04-12T00:38:12.037Z,5.60
2018-04-12T00:40:42.587Z,4.80
2018-04-12T00:43:12.750Z,5.63
2018-04-12T00:45:42.910Z,5.70
2018-04-12T00:48:12.847Z,5.50
2018-04-12T00:50:45.861Z,5.60
2018-04-12T00:53:16.545Z,6.00
2018-04-12T00:55:46.055Z,5.33
2018-04-12T00:58:16.394Z,6.13
2018-04-12T01:00:46.143Z,6.87
2018-04-12T01:03:15.216Z,5.93
2018-04-12T01:05:44.441Z,6.00
2018-04-12T01:08:13.631Z,6.20
2018-04-12T01:10:44.071Z,6.03
2018-04-12T01:13:13.753Z,6.37
2018-04-12T01:15:43.611Z,6.40
2018-04-12T01:18:13.549Z,5.93
2018-04-12T01:20:43.669Z,6.70
2018-04-12T01:23:12.893Z,6.00
2018-04-12T01:25:43.707Z,7.00
2018-04-12T01:28:14.264Z,7.03
2018-04-12T01:30:44.993Z,6.27
2018-04-12T01:33:17.958Z,7.10
2018-04-12T01:35:48.193Z,7.57
2018-04-12T01:38:17.396Z,7.97
2018-04-12T01:40:46.680Z,7.07
2018-04-12T01:43:16.830Z,7.80
2018-04-12T01:45:46.741Z,6.60
2018-04-12T01:48:16.517Z,8.10
2018-04-12T01:50:47.406Z,8.43
2018-04-12T01:53:17.015Z,8.90
2018-04-12T01:55:46.477Z,8.27
2018-04-12T01:58:15.743Z,7.90
2018-04-12T02:00:45.013Z,9.47
2018-04-12T02:03:15.265Z,8.53
2018-04-12T02:05:46.530Z,9.27
2018-04-12T02:08:16.947Z,10.17
2018-04-12T02:10:46.812Z,9.83
2018-04-12T02:13:16.199Z,9.50
2018-04-12T02:15:45.500Z,9.80
2018-04-12T02:18:16.591Z,10.63
2018-04-12T02:20:46.032Z,10.27
2018-04-12T02:23:15.155Z,10.80
2018-04-12T02:25:44.478Z,10.33
2018-04-12T02:28:14.050Z,10.80
2018-04-12T02:30:43.431Z,10.57
2018-04-12T02:33:13.032Z,10.80
2018-04-12T02:35:42.802Z,10.30
2018-04-12T02:38:12.264Z,11.20
2018-04-12T02:40:41.405Z,11.13
2018-04-12T02:43:10.987Z,11.47
2018-04-12T02:45:40.153Z,11.67
2018-04-12T02:48:09.377Z,11.83
2018-04-12T02:50:39.539Z,12.00
2018-04-12T02:53:08.727Z,11.83
2018-04-12T02:55:38.027Z,13.70
2018-04-12T02:58:08.045Z,13.40
2018-04-12T03:00:37.595Z,12.50
2018-04-12T03:03:06.996Z,13.43
2018-04-12T03:05:36.273Z,13.60
2018-04-12T03:08:06.179Z,14.40
2018-04-12T03:10:35.368Z,13.80
2018-04-12T03:13:04.705Z,14.50
2018-04-12T03:15:34.020Z,15.00
2018-04-12T03:18:04.166Z,14.80
2018-04-12T03:20:33.306Z,15.10
2018-04-12T03:23:02.611Z,16.33
2018-04-12T03:25:32.210Z,16.57
2018-04-12T03:28:01.680Z,15.80
2018-04-12T03:30:31.238Z,16.43
2018-04-12T03:33:01.023Z,16.57
2018-04-12T03:35:30.709Z,16.50
2018-04-12T03:37:59.927Z,17.10
2018-04-12T03:40:29.073Z,17.33
2018-04-12T03:42:58.316Z,19.47
2018-04-12T03:45:27.509Z,17.23
2018-04-12T03:47:57.176Z,18.00
2018-04-12T03:50:26.459Z,19.37
2018-04-12T03:52:55.735Z,17.70
2018-04-12T03:55:25.059Z,18.87
2018-04-12T03:57:54.384Z,18.03
2018-04-12T04:00:23.685Z,19.40
2018-04-12T04:02:54.440Z,18.87
2018-04-12T04:05:23.609Z,20.97
2018-04-12T04:07:52.964Z,19.97
2018-04-12T04:10:22.180Z,19.13
2018-04-12T04:12:51.482Z,19.50
2018-04-12T04:19:33.524Z,20.23
2018-04-12T04:22:04.450Z,21.17
2018-04-12T04:24:33.854Z,19.77
2018-04-12T04:27:03.626Z,21.10
2018-04-12T04:29:32.802Z,21.60
2018-04-12T04:32:04.224Z,22.30
2018-04-12T04:34:33.832Z,21.60
2018-04-12T04:37:03.694Z,23.43
2018-04-12T04:39:33.103Z,23.03
2018-04-12T04:42:03.863Z,23.20
2018-04-12T04:44:33.279Z,21.53
2018-04-12T04:47:02.677Z,22.93
2018-04-12T04:49:32.441Z,23.30
2018-04-12T04:52:02.703Z,23.30
2018-04-12T04:54:31.883Z,25.13
2018-04-12T04:57:02.528Z,22.90
2018-04-12T04:59:31.774Z,22.30
2018-04-12T05:02:00.978Z,23.37
2018-04-12T05:04:30.605Z,22.77
2018-04-12T05:06:59.518Z,24.93
2018-04-12T05:09:28.477Z,25.47
2018-04-12T05:11:58.972Z,28.80
2018-04-12T05:14:27.908Z,25.83
2018-04-12T05:16:57.301Z,25.27
2018-04-12T05:19:26.716Z,26.97
2018-04-12T05:21:55.927Z,27.00
2018-04-12T05:24:24.832Z,26.50
2018-04-12T05:26:54.227Z,26.57
2018-04-12T05:29:23.227Z,26.93
2018-04-12T05:31:52.655Z,28.33
2018-04-12T05:34:22.337Z,27.27
2018-04-12T05:36:52.448Z,29.80
2018-04-12T05:39:21.891Z,28.37
2018-04-12T05:41:52.901Z,27.27
2018-04-12T05:44:22.125Z,30.40
2018-04-12T05:46:51.864Z,28.50
2018-04-12T05:49:21.139Z,29.40
2018-04-12T05:51:50.910Z,26.87
2018-04-12T05:54:20.150Z,29.23
2018-04-12T05:59:30.091Z,28.43
2018-04-12T06:02:00.314Z,29.60
2018-04-12T06:04:30.311Z,29.90
2018-04-12T06:06:59.446Z,28.77
2018-04-12T06:09:28.576Z,28.03
2018-04-12T06:11:57.804Z,29.20
2018-04-12T06:14:27.059Z,29.03
2018-04-12T06:16:56.273Z,30.53
2018-04-12T06:19:26.032Z,28.50
2018-04-12T06:22:01.014Z,27.60
2018-04-12T06:24:37.112Z,27.43
2018-04-12T06:27:07.045Z,30.10
2018-04-12T06:29:35.962Z,30.03
2018-04-12T06:32:05.950Z,30.17
2018-04-12T06:34:34.871Z,28.10
2018-04-12T06:37:03.837Z,29.73
2018-04-12T06:39:33.674Z,27.70
2018-04-12T06:42:05.019Z,28.77
2018-04-12T06:44:33.977Z,27.70
2018-04-12T06:47:03.766Z,27.33
2018-04-12T06:49:33.712Z,28.00
2018-04-12T06:52:04.486Z,29.03
2018-04-12T06:54:35.151Z,28.40
2018-04-12T06:57:04.413Z,28.20
2018-04-12T06:59:33.351Z,26.53
2018-04-12T07:02:04.192Z,28.00
2018-04-12T07:04:33.165Z,25.87
2018-04-12T07:07:02.492Z,26.67
2018-04-12T07:09:33.836Z,24.20
2018-04-12T07:12:04.296Z,26.00
2018-04-12T07:14:33.852Z,25.03
2018-04-12T07:17:03.312Z,25.40
2018-04-12T07:19:32.260Z,24.73
2018-04-12T07:22:01.366Z,23.40
2018-04-12T07:24:30.630Z,23.87
2018-04-12T07:27:00.119Z,22.10
2018-04-12T07:29:29.055Z,22.17
2018-04-12T07:31:58.262Z,20.67
2018-04-12T07:34:27.548Z,20.83
2018-04-12T07:36:56.468Z,21.03
2018-04-12T07:39:25.935Z,19.57
2018-04-12T07:41:57.948Z,18.20
2018-04-12T07:44:28.236Z,20.87
2018-04-12T07:46:58.450Z,22.63
2018-04-12T07:49:27.523Z,17.40
2018-04-12T07:51:57.031Z,16.83
2018-04-12T07:54:26.250Z,14.40
2018-04-12T07:56:55.174Z,15.40
2018-04-12T07:59:24.098Z,14.83
2018-04-12T08:01:53.446Z,15.83
2018-04-12T08:04:22.382Z,16.00
2018-04-12T08:06:51.778Z,16.17
2018-04-12T08:09:20.986Z,14.30
2018-04-12T08:11:50.244Z,13.93
2018-04-12T08:14:19.178Z,13.47
2018-04-12T08:16:48.785Z,12.00
2018-04-12T08:19:17.760Z,12.10
2018-04-12T08:21:46.715Z,11.70
2018-04-12T08:24:15.979Z,14.43
2018-04-12T08:26:45.035Z,15.30
2018-04-12T08:29:14.016Z,16.30
2018-04-12T08:31:43.353Z,16.40
2018-04-12T08:34:12.412Z,16.27
2018-04-12T08:36:41.367Z,16.00
2018-04-12T08:39:10.655Z,15.37
2018-04-12T08:41:39.605Z,13.83
2018-04-12T08:44:08.575Z,12.60
2018-04-12T08:46:38.797Z,11.50
2018-04-12T08:49:07.899Z,13.63
2018-04-12T08:51:36.860Z,14.93
2018-04-12T08:54:06.715Z,13.57
2018-04-12T08:56:35.891Z,17.10
2018-04-12T08:59:06.125Z,13.33
2018-04-12T09:01:35.288Z,12.50
2018-04-12T09:04:04.947Z,12.40
2018-04-12T09:06:33.997Z,13.17
2018-04-12T09:09:03.991Z,11.37
2018-04-12T09:11:33.096Z,12.60
2018-04-12T09:14:02.772Z,12.27
2018-04-12T09:16:33.680Z,12.70
2018-04-12T09:19:03.830Z,11.73
2018-04-12T09:21:32.820Z,11.23
2018-04-12T09:24:04.024Z,10.80
2018-04-12T09:26:33.036Z,11.63
2018-04-12T09:29:02.916Z,11.93
2018-04-12T09:31:32.347Z,11.80
2018-04-12T09:34:01.816Z,12.03
2018-04-12T09:36:30.994Z,9.93
2018-04-12T09:39:00.447Z,10.33
2018-04-12T09:41:29.548Z,11.90
2018-04-12T09:43:58.621Z,11.50
2018-04-12T09:46:27.891Z,11.47
2018-04-12T09:48:57.217Z,9.87
2018-04-12T09:51:27.490Z,10.07
2018-04-12T09:53:59.363Z,9.80
2018-04-12T09:56:28.270Z,8.10
2018-04-12T09:58:57.202Z,7.60
2018-04-12T10:01:26.172Z,6.80
2018-04-12T10:03:55.975Z,8.20
2018-04-12T10:06:25.028Z,8.27
2018-04-12T10:08:58.294Z,7.67
2018-04-12T10:11:27.656Z,9.03
2018-04-12T10:13:56.575Z,8.80
2018-04-12T10:16:25.461Z,10.93
2018-04-12T10:18:55.753Z,8.93
2018-04-12T10:21:24.697Z,9.20
2018-04-12T10:23:54.813Z,9.47
2018-04-12T10:26:24.095Z,9.30
2018-04-12T10:28:53.844Z,9.80
2018-04-12T10:31:22.860Z,8.77
2018-04-12T10:33:52.675Z,10.00
2018-04-12T10:36:21.743Z,10.07
2018-04-12T10:38:51.286Z,9.20
2018-04-12T10:41:20.527Z,9.63
2018-04-12T10:43:50.492Z,10.40
2018-04-12T10:46:19.571Z,9.63
2018-04-12T10:48:49.072Z,10.07
2018-04-12T10:51:18.054Z,10.00
2018-04-12T10:53:47.094Z,9.70
2018-04-12T10:56:16.307Z,10.33
2018-04-12T10:58:45.392Z,10.00
2018-04-12T11:01:14.303Z,10.90
2018-04-12T11:03:43.252Z,11.60
2018-04-12T11:06:12.171Z,12.30
2018-04-12T11:08:41.104Z,10.27
2018-04-12T11:11:11.115Z,12.83
2018-04-12T11:13:40.111Z,10.63
2018-04-12T11:16:09.390Z,10.73
2018-04-12T11:18:38.648Z,8.60
2018-04-12T11:21:08.575Z,8.20
2018-04-12T11:23:37.699Z,8.17
2018-04-12T11:28:43.056Z,7.20
2018-04-12T11:31:12.004Z,8.67
2018-04-12T11:33:41.237Z,9.30
2018-04-12T11:36:10.372Z,8.70
2018-04-12T11:38:39.329Z,9.20
2018-04-12T11:41:08.560Z,11.00
2018-04-12T11:43:37.563Z,10.70
2018-04-12T11:46:06.520Z,10.03
2018-04-12T11:48:35.984Z,10.60
2018-04-12T11:51:05.675Z,11.17
2018-04-12T11:53:34.626Z,10.00
2018-04-12T11:56:04.941Z,10.33
2018-04-12T11:58:33.861Z,10.30
2018-04-12T12:01:04.290Z,10.70
2018-04-12T12:03:33.529Z,10.33
2018-04-12T12:06:03.396Z,11.53
2018-04-12T12:08:32.356Z,11.60
2018-04-12T12:14:00.716Z,9.30
2018-04-12T12:16:30.588Z,9.50
2018-04-12T12:19:00.035Z,9.50
2018-04-12T12:21:29.008Z,8.30
2018-04-12T12:23:59.210Z,8.30
2018-04-12T12:26:28.207Z,7.97
2018-04-12T12:28:58.626Z,8.30
2018-04-12T12:31:27.902Z,7.80
2018-04-12T12:33:56.943Z,7.50
2018-04-12T12:36:25.885Z,8.37
2018-04-12T12:38:55.775Z,8.50
2018-04-12T12:41:24.772Z,8.40
2018-04-12T12:43:53.733Z,8.50
2018-04-12T12:46:23.051Z,9.43
2018-04-12T12:48:52.061Z,8.10
2018-04-12T12:51:20.984Z,8.40
2018-04-12T12:53:50.373Z,9.30
2018-04-12T12:56:19.419Z,7.60
2018-04-12T12:58:48.395Z,6.57
2018-04-12T13:01:17.847Z,7.30
2018-04-12T13:03:46.842Z,6.63
2018-04-12T13:06:15.783Z,7.47
2018-04-12T13:08:59.782Z,7.30
2018-04-12T13:11:28.838Z,6.73
2018-04-12T13:13:58.167Z,7.50
2018-04-12T13:16:27.111Z,7.17
2018-04-12T13:18:56.297Z,7.50
2018-04-12T13:21:25.598Z,7.30
2018-04-12T13:23:54.917Z,8.00
2018-04-12T13:26:23.803Z,8.07
2018-04-12T13:28:53.142Z,8.33
2018-04-12T13:31:22.057Z,6.87
2018-04-12T13:33:51.457Z,7.13
2018-04-12T13:36:20.766Z,7.70
2018-04-12T13:38:50.364Z,7.47
2018-04-12T13:41:19.383Z,7.53
2018-04-12T13:43:48.839Z,8.53
2018-04-12T13:46:17.880Z,7.63
2018-04-12T13:48:46.930Z,9.00
2018-04-12T13:51:16.364Z,7.03
2018-04-12T13:53:45.407Z,7.30
2018-04-12T13:56:14.771Z,7.17
2018-04-12T13:58:44.019Z,7.43
2018-04-12T14:01:12.947Z,8.03
2018-04-12T14:03:41.822Z,8.70
2018-04-12T14:06:10.727Z,8.47
2018-04-12T14:08:39.731Z,7.83
2018-04-12T14:11:08.680Z,8.40
2018-04-12T14:14:08.931Z,8.83
2018-04-12T14:16:38.098Z,9.40
2018-04-12T14:19:07.319Z,9.30
2018-04-12T14:21:36.232Z,9.93
2018-04-12T14:24:05.584Z,8.90
2018-04-12T14:26:34.850Z,9.50
2018-04-12T14:29:03.860Z,9.27
2018-04-12T14:31:32.833Z,10.10
2018-04-12T14:34:03.117Z,8.70
2018-04-12T14:36:32.020Z,8.70
2018-04-12T14:39:00.947Z,7.43
2018-04-12T14:41:30.355Z,7.90
2018-04-12T14:43:59.261Z,8.13
2018-04-12T14:46:28.284Z,7.37
2018-04-12T14:48:59.945Z,8.37
2018-04-12T14:51:28.924Z,8.30
2018-04-12T14:53:58.388Z,8.57
2018-04-12T14:56:27.595Z,8.13
2018-04-12T14:58:57.156Z,9.13
2018-04-12T15:01:26.143Z,8.40
2018-04-12T15:03:56.325Z,10.00
2018-04-12T15:06:25.361Z,7.53
2018-04-12T15:08:54.303Z,8.57
2018-04-12T15:11:23.608Z,7.93
2018-04-12T15:13:54.827Z,7.70
2018-04-12T15:16:23.824Z,8.23
2018-04-12T15:18:54.356Z,7.97
2018-04-12T15:21:23.289Z,7.43
2018-04-12T15:23:54.056Z,7.50
2018-04-12T15:26:23.427Z,8.03
2018-04-12T15:28:52.743Z,7.80
2018-04-12T15:33:45.136Z,7.83
2018-04-12T15:36:14.267Z,8.00
2018-04-12T15:38:43.560Z,7.20
2018-04-12T15:41:13.146Z,6.77
2018-04-12T15:43:42.115Z,7.70
2018-04-12T15:46:11.325Z,8.60
2018-04-12T15:48:40.873Z,8.53
2018-04-12T15:51:09.848Z,7.37
2018-04-12T15:53:38.966Z,7.87
2018-04-12T15:56:08.885Z,6.43
2018-04-12T15:58:38.577Z,7.40
2018-04-12T16:01:07.587Z,7.47
2018-04-12T16:03:36.812Z,6.63
2018-04-12T16:06:06.798Z,6.30
2018-04-12T16:08:35.803Z,6.57
2018-04-12T16:11:10.341Z,6.23
2018-04-12T16:13:39.316Z,5.63
2018-04-12T16:16:09.582Z,5.80
2018-04-12T16:18:38.575Z,5.43
2018-04-12T16:21:07.547Z,7.10
2018-04-12T16:23:37.215Z,6.87
2018-04-12T16:26:06.247Z,7.20
2018-04-12T16:28:35.290Z,6.20
2018-04-12T16:31:04.927Z,6.30
2018-04-12T16:33:33.867Z,7.63
2018-04-12T16:36:04.443Z,9.00
2018-04-12T16:38:33.468Z,8.43
2018-04-12T16:41:02.472Z,8.87
2018-04-12T16:43:31.690Z,11.10
2018-04-12T16:46:00.647Z,8.50
2018-04-12T16:48:29.650Z,6.80
2018-04-12T16:50:58.680Z,6.80
2018-04-12T16:53:27.716Z,8.60
2018-04-12T16:55:57.308Z,6.90
2018-04-12T16:58:26.211Z,6.80
2018-04-12T17:00:55.382Z,6.73
2018-04-12T17:03:24.288Z,6.50
2018-04-12T17:05:54.506Z,7.10
2018-04-12T17:08:23.749Z,5.80
2018-04-12T17:10:53.054Z,8.10
2018-04-12T17:13:22.020Z,7.30
2018-04-12T17:15:51.210Z,7.20
2018-04-12T17:18:20.558Z,6.57
2018-04-12T17:20:50.106Z,7.00
2018-04-12T17:23:19.705Z,5.90
2018-04-12T17:25:48.652Z,5.27
2018-04-12T17:28:17.871Z,4.87
2018-04-12T17:30:46.799Z,4.77
2018-04-12T17:33:15.818Z,5.10
2018-04-12T17:35:45.022Z,5.03
2018-04-12T17:38:14.039Z,5.80
2018-04-12T17:40:43.031Z,5.23
2018-04-12T17:43:12.541Z,5.90
2018-04-12T17:45:41.555Z,4.70
2018-04-12T17:48:10.837Z,5.20
2018-04-12T17:50:39.847Z,4.73
2018-04-12T17:53:09.751Z,4.87
2018-04-12T17:55:38.679Z,4.30
2018-04-12T17:58:07.624Z,4.87
2018-04-12T18:03:34.026Z,4.93
2018-04-12T18:06:03.756Z,4.83
2018-04-12T18:08:33.583Z,5.33
2018-04-12T18:11:02.670Z,5.20
2018-04-12T18:13:33.067Z,5.07
2018-04-12T18:16:01.919Z,5.13
2018-04-12T18:18:42.638Z,5.33
2018-04-12T18:21:21.954Z,5.63
2018-04-12T18:23:50.811Z,4.43
2018-04-12T18:26:20.082Z,4.73
2018-04-12T18:28:50.313Z,4.03
2018-04-12T18:31:18.914Z,5.50
2018-04-12T19:09:49.844Z,10.13
2018-04-12T19:12:25.695Z,11.20
2018-04-12T19:14:54.230Z,11.67
2018-04-12T19:17:22.753Z,12.77
2018-04-12T19:19:51.713Z,13.70
2018-04-12T19:22:20.355Z,13.47
2018-04-12T19:24:48.905Z,13.33
2018-04-12T19:27:17.766Z,12.33
2018-04-12T19:29:47.944Z,11.40
2018-04-12T19:32:16.506Z,10.83
2018-04-12T19:34:46.488Z,10.50
2018-04-12T19:37:15.057Z,8.83
2018-04-12T19:39:43.938Z,9.23
2018-04-12T19:42:12.767Z,8.70
2018-04-12T19:44:41.623Z,7.97
2018-04-12T19:47:10.431Z,7.83
2018-04-12T19:49:40.095Z,7.50
2018-04-12T19:52:09.261Z,8.10
2018-04-12T19:54:38.436Z,8.27
2018-04-12T19:57:07.236Z,8.13
2018-04-12T20:02:39.419Z,8.60
2018-04-12T20:05:08.300Z,9.57
2018-04-12T20:07:37.743Z,12.40
2018-04-12T20:10:06.349Z,12.47
2018-04-12T20:12:35.972Z,10.00
2018-04-12T20:15:06.497Z,11.00
2018-04-12T20:17:37.568Z,10.77
2018-04-12T20:20:06.497Z,11.50
2018-04-12T20:22:36.034Z,9.50
2018-04-12T20:25:04.789Z,10.10
2018-04-12T20:27:34.703Z,10.70
2018-04-12T20:30:07.824Z,9.37
2018-04-12T20:32:36.673Z,10.00
2018-04-12T20:35:08.254Z,10.93
2018-04-12T20:37:37.159Z,10.77
2018-04-12T20:40:06.009Z,9.90
2018-04-12T20:42:34.611Z,8.67
2018-04-12T20:45:05.765Z,8.50
2018-04-12T20:47:35.747Z,8.93
2018-04-12T20:54:32.610Z,8.60
2018-04-12T20:59:35.412Z,9.00
2018-04-12T21:02:10.180Z,8.90
2018-04-12T21:04:39.103Z,8.83
2018-04-12T21:07:08.327Z,7.97
2018-04-12T21:09:37.669Z,8.60
2018-04-12T21:12:06.452Z,8.63
2018-04-12T21:14:35.140Z,8.60
2018-04-12T21:17:03.964Z,8.07
2018-04-12T21:19:32.870Z,9.17
2018-04-12T21:22:03.615Z,8.20
2018-04-12T21:24:32.442Z,8.40
2018-04-12T21:27:01.069Z,9.10
2018-04-12T21:29:37.069Z,9.90
2018-04-12T21:32:05.604Z,8.90
2018-04-12T21:34:34.541Z,9.07
2018-04-12T21:37:03.189Z,10.67
2018-04-12T21:39:31.853Z,8.73
2018-04-12T21:42:00.486Z,8.77
2018-04-12T21:44:29.530Z,8.33
2018-04-12T21:46:59.406Z,9.23
2018-04-12T21:49:28.179Z,9.13
2018-04-12T21:51:56.890Z,8.87
2018-04-12T21:54:26.035Z,10.07
2018-04-12T21:56:54.816Z,10.50
2018-04-12T21:59:24.658Z,10.10
2018-04-12T22:01:53.253Z,10.40
2018-04-12T22:04:22.056Z,10.20
2018-04-12T22:06:50.986Z,9.77
2018-04-12T22:09:27.783Z,10.77
2018-04-12T22:11:57.323Z,10.50
2018-04-12T22:14:27.051Z,10.07
2018-04-12T22:16:56.091Z,9.57
2018-04-12T22:19:25.820Z,9.27
2018-04-12T22:21:54.590Z,9.77
2018-04-12T22:24:29.233Z,8.03
2018-04-12T22:26:59.167Z,7.90
2018-04-12T22:29:29.487Z,8.10
2018-04-12T22:32:03.826Z,7.63
2018-04-12T22:34:33.680Z,8.47
2018-04-12T22:37:02.380Z,8.20
2018-04-12T22:39:31.431Z,8.63
2018-04-12T22:42:00.130Z,8.20
2018-04-12T22:44:28.724Z,7.60
2018-04-12T22:46:57.784Z,8.30
2018-04-12T22:49:28.325Z,8.43
2018-04-12T22:51:57.079Z,8.47
2018-04-12T22:57:01.076Z,8.33
2018-04-12T22:59:30.076Z,8.00
2018-04-12T23:01:59.580Z,8.63
2018-04-12T23:04:29.061Z,8.43
2018-04-12T23:06:57.769Z,7.50
2018-04-12T23:09:27.263Z,8.40
2018-04-12T23:11:56.289Z,8.33
2018-04-12T23:14:25.017Z,7.70
2018-04-12T23:16:53.660Z,8.70
2018-04-12T23:19:22.970Z,7.97
2018-04-12T23:21:51.726Z,8.33
2018-04-12T23:24:26.509Z,7.80
2018-04-12T23:26:55.130Z,8.53
2018-04-12T23:29:24.668Z,8.70
2018-04-12T23:31:53.643Z,7.70
2018-04-12T23:34:22.455Z,8.60
2018-04-12T23:36:51.207Z,8.20
2018-04-12T23:39:27.470Z,8.77
2018-04-12T23:41:56.152Z,8.33
2018-04-12T23:44:24.978Z,7.90
2018-04-12T23:46:54.018Z,8.00
2018-04-12T23:49:29.791Z,7.90
2018-04-12T23:51:58.408Z,8.47
2018-04-12T23:54:29.411Z,8.13
2018-04-12T23:56:58.336Z,8.57
2018-04-12T23:59:28.079Z,8.27
